Terminal Aerodrome Forecast
Issued by NWS

Home | Current Version | Previous Version | Text Only | Print | Product List | Glossary Off
Versions: 1 2 3 4 5 6 7 8 9 10 11 12 13 14 15 16 17 18 19 20 21 22

000
FTUS43 KMPX 212320
TAFRNH
TAF
KRNH 212320Z 2200/2224 15007KT P6SM SCT025 BKN090
     FM220700 10005KT P6SM SCT020 BKN060
     FM220800 12004KT 4SM BR SCT050
     FM221000 VRB03KT 1/2SM FG BKN003
     FM221400 VRB04KT 4SM BR BKN008
     FM221600 28006KT P6SM SCT012 BKN020=

USA.gov is the U.S. government's official web portal to all federal, state and local government web resources and services.